Time;durP1;ratioP1;P1;durP2;ratioP2;P2;SDS_P1;SDS_P2;PMS_P1;PMS_P2;Temp;Humidity;BMP_temperature;BMP_pressure;BME280_temperature;BME280_humidity;BME280_pressure;Samples;Min_cycle;Max_cycle;Signal;HPM_P1;HPM_P2
2022/10/22 00:11:28;;;;;;;;;;;;;;;12.18;100.00;68121.31;1276864;23;20202;-84
2022/10/22 00:13:53;;;;;;;;;;;;;;;12.14;100.00;68116.75;4908566;29;19923;-88
2022/10/22 00:16:18;;;;;;;;;;;;;;;12.23;100.00;68121.66;4912149;29;19923;-85
2022/10/22 00:18:44;;;;;;;;;;;;;;;12.24;100.00;68127.56;4913389;29;20429;-87
2022/10/22 00:21:09;;;;;;;;;;;;;;;;;;4912230;29;19923;-86
2022/10/22 05:20:47;;;;;;;;;;;;;;;11.32;100.00;68025.88;3654327;23;20895;-88
2022/10/22 05:23:13;;;;;;;;;;;;;;;11.37;100.00;68031.00;4867935;29;19924;-85
2022/10/22 05:25:44;;;;;;;;;;;;;;;11.35;100.00;68028.72;4851534;29;19926;-86
2022/10/22 05:28:14;;;;;;;;;;;;;;;11.38;100.00;68030.00;4870552;29;19919;-86
2022/10/22 05:30:58;;;;;;;;;;;;;;;11.41;100.00;68036.09;4856300;29;19930;-87
2022/10/22 06:43:12;;;;;;;;;;;;;;;12.17;100.00;68120.19;5483922;23;19919;-89
2022/10/22 06:45:37;;;;;;;;;;;;;;;12.22;100.00;68123.16;4944826;29;19919;-88
2022/10/22 06:48:03;;;;;;;;;;;;;;;12.22;100.00;68125.84;4942753;29;19915;-87
2022/10/22 06:50:28;;;;;;;;;;;;;;;12.27;100.00;68126.19;4929909;29;19919;-87
2022/10/22 06:52:53;;;;;;;;;;;;;;;12.30;100.00;68134.38;4924525;29;19923;-87
2022/10/22 06:55:18;;;;;;;;;;;;;;;12.28;100.00;68132.09;4922136;29;19919;-87
2022/10/22 21:23:02;;;;;;;;;;;;;;;;;;5818139;23;19922;-81
2022/10/22 21:25:30;;;;;;;;;;;;;;;10.07;100.00;67887.41;4950167;28;19922;-81
2022/10/22 21:27:55;;;;;;;;;;;;;;;10.06;100.00;67891.00;4965812;28;19919;-83
2022/10/22 21:30:20;;;;;;;;;;;;;;;10.07;100.00;67886.81;4969849;28;19918;-81
2022/10/22 21:32:45;;;;;;;;;;;;;;;;;;4964435;28;19914;-83
2022/10/22 21:35:11;;;;;;;;;;;;;;;10.12;100.00;67893.06;4955431;29;19915;-82
2022/10/22 21:37:36;;;;;;;;;;;;;;;10.11;100.00;67889.28;4957715;28;19918;-82
2022/10/22 21:40:02;;;;;;;;;;;;;;;10.15;100.00;67896.47;4958436;28;20017;-82
2022/10/22 21:42:27;;;;;;;;;;;;;;;10.13;100.00;67891.53;4963110;28;20001;-83
2022/10/22 21:44:53;;;;;;;;;;;;;;;;;;4966977;28;19957;-82
2022/10/22 21:47:18;;;;;;;;;;;;;;;10.14;100.00;67895.34;4937113;29;19918;-82
2022/10/22 21:49:43;;;;;;;;;;;;;;;10.15;100.00;67893.81;4962673;28;19930;-82
2022/10/22 21:52:08;;;;;;;;;;;;;;;10.20;100.00;67901.00;4954662;29;19918;-84
2022/10/22 21:54:36;;;;;;;;;;;;;;;10.22;100.00;67903.28;4953857;29;19929;-83
2022/10/22 21:57:01;;;;;;;;;;;;;;;10.20;100.00;67901.56;4957642;28;19938;-82
2022/10/22 21:59:30;;;;;;;;;;;;;;;10.17;100.00;67904.06;4956027;29;20374;-82
2022/10/22 22:01:56;;;;;;;;;;;;;;;10.19;100.00;67897.22;4959597;28;20447;-83
2022/10/22 22:04:21;;;;;;;;;;;;;;;;;;4948896;28;20005;-82
2022/10/22 22:06:46;;;;;;;;;;;;;;;10.16;100.00;67902.94;4968036;28;19918;-83
2022/10/22 22:09:11;;;;;;;;;;;;;;;;;;4958961;28;19914;-81
2022/10/22 22:11:36;;;;;;;;;;;;;;;10.20;100.00;67901.00;4954904;28;19919;-83
2022/10/22 22:14:02;;;;;;;;;;;;;;;10.15;100.00;67901.78;4956002;29;19914;-81
2022/10/22 22:16:28;;;;;;;;;;;;;;;10.15;100.00;67893.81;4957536;28;20009;-82
2022/10/22 22:18:53;;;;;;;;;;;;;;;;;;4962478;28;19910;-82
2022/10/22 22:21:19;;;;;;;;;;;;;;;10.13;100.00;67894.22;4971530;28;20054;-81
2022/10/22 22:23:45;;;;;;;;;;;;;;;10.20;100.00;67901.00;4949590;28;19926;-83
2022/10/22 22:26:10;;;;;;;;;;;;;;;;;;4974265;28;19914;-84
2022/10/22 22:28:36;;;;;;;;;;;;;;;10.28;100.00;67907.44;4955131;29;20009;-82
2022/10/22 22:31:09;;;;;;;;;;;;;;;10.25;100.00;67906.69;4947623;29;19961;-82
2022/10/22 22:33:35;;;;;;;;;;;;;;;;;;4932776;29;19990;-82
2022/10/22 22:36:00;;;;;;;;;;;;;;;;;;4936270;29;20374;-81
2022/10/22 22:38:25;;;;;;;;;;;;;;;;;;4959442;28;20008;-81
2022/10/22 22:40:50;;;;;;;;;;;;;;;10.27;100.00;67909.53;4965234;28;19956;-81
2022/10/22 22:43:15;;;;;;;;;;;;;;;10.23;100.00;67904.97;4951408;28;19914;-81
2022/10/22 22:45:40;;;;;;;;;;;;;;;;;;4944406;28;19946;-81
2022/10/22 22:48:06;;;;;;;;;;;;;;;10.26;100.00;67907.81;4968248;28;19956;-84
2022/10/22 22:50:31;;;;;;;;;;;;;;;;;;4965612;28;19929;-81
2022/10/22 22:52:56;;;;;;;;;;;;;;;10.25;100.00;67904.59;4952686;28;20559;-82
2022/10/22 22:55:22;;;;;;;;;;;;;;;10.20;100.00;67901.00;4945067;29;20422;-81
2022/10/22 22:57:47;;;;;;;;;;;;;;;10.19;100.00;67897.78;4955643;28;21506;-81
2022/10/22 23:00:12;;;;;;;;;;;;;;;10.23;100.00;67909.72;4968691;28;19977;-82
2022/10/22 23:02:37;;;;;;;;;;;;;;;;;;4951418;28;19922;-81
2022/10/22 23:05:02;;;;;;;;;;;;;;;;;;4968745;28;20009;-82
2022/10/22 23:07:28;;;;;;;;;;;;;;;;;;4961861;28;19915;-81
2022/10/22 23:09:53;;;;;;;;;;;;;;;;;;4965681;28;19914;-82
2022/10/22 23:12:18;;;;;;;;;;;;;;;;;;4956266;28;19918;-81
2022/10/22 23:14:43;;;;;;;;;;;;;;;10.19;100.00;67905.75;4953678;28;19953;-81
2022/10/22 23:17:08;;;;;;;;;;;;;;;10.16;100.00;67897.03;4952753;29;19937;-82
2022/10/22 23:19:34;;;;;;;;;;;;;;;10.23;100.00;67902.31;4952897;29;19977;-82
2022/10/22 23:21:59;;;;;;;;;;;;;;;10.18;100.00;67899.28;4952153;29;19925;-82
2022/10/22 23:24:24;;;;;;;;;;;;;;;;;;4973002;23;19926;-81
2022/10/22 23:26:51;;;;;;;;;;;;;;;10.14;100.00;67894.78;4963407;28;19924;-80
2022/10/22 23:29:16;;;;;;;;;;;;;;;;;;4951715;29;20018;-80
2022/10/22 23:31:41;;;;;;;;;;;;;;;;;;4951377;29;19981;-82
2022/10/22 23:34:07;;;;;;;;;;;;;;;10.19;100.00;67899.88;4939375;29;19961;-81
2022/10/22 23:36:33;;;;;;;;;;;;;;;10.19;100.00;67899.88;4933552;29;19914;-80
2022/10/22 23:38:58;;;;;;;;;;;;;;;10.11;100.00;67897.25;4935914;29;19914;-81
2022/10/22 23:41:24;;;;;;;;;;;;;;;;;;4930783;29;19922;-82
2022/10/22 23:43:49;;;;;;;;;;;;;;;10.04;100.00;67884.00;4933929;28;19925;-81
2022/10/22 23:46:14;;;;;;;;;;;;;;;10.02;100.00;67881.72;4930841;29;19925;-80
2022/10/22 23:48:40;;;;;;;;;;;;;;;10.02;100.00;67889.16;4914964;29;19914;-82
2022/10/22 23:51:06;;;;;;;;;;;;;;;10.01;100.00;67885.91;4929876;29;19925;-80
2022/10/22 23:53:31;;;;;;;;;;;;;;;10.01;100.00;67880.59;4939615;23;20017;-81
2022/10/22 23:55:57;;;;;;;;;;;;;;;10.06;100.00;67885.69;4933133;29;19946;-80
2022/10/22 23:58:22;;;;;;;;;;;;;;;9.97;100.00;67881.38;4953150;29;19921;-81
